Time;durP1;ratioP1;P1;durP2;ratioP2;P2;SDS_P1;SDS_P2;PMS_P1;PMS_P2;Temp;Humidity;BMP_temperature;BMP_pressure;BME280_temperature;BME280_humidity;BME280_pressure;Samples;Min_cycle;Max_cycle;Signal;HPM_P1;HPM_P2
2022/11/05 00:10:50;;;;;;;4.75;2.63;;;;;;;12.37;62.55;101458.91;4942170;29;20051;-61
2022/11/05 00:27:09;;;;;;;5.82;2.40;;;;;;;12.33;62.06;101471.19;4949623;28;20054;-61
2022/11/05 00:29:37;;;;;;;4.45;2.67;;;;;;;12.32;62.39;101476.78;5008425;28;20042;-61
2022/11/05 00:32:05;;;;;;;7.85;2.35;;;;;;;12.30;62.16;101477.00;5006660;28;20050;-61
2022/11/05 00:34:34;;;;;;;7.20;2.30;;;;;;;12.31;62.15;101475.13;5009221;28;20045;-61
2022/11/05 00:37:02;;;;;;;3.60;1.88;;;;;;;12.30;62.25;101481.56;5009866;28;20129;-61
2022/11/05 00:39:29;;;;;;;4.25;2.28;;;;;;;12.28;62.20;101481.78;5049660;28;20044;-61
2022/11/05 00:50:11;;;;;;;4.90;2.33;;;;;;;12.25;62.12;101501.09;5080588;28;20204;-61
2022/11/05 00:52:58;;;;;;;4.55;2.33;;;;;;;12.25;62.10;101494.88;5078486;28;20136;-61
2022/11/05 00:55:32;;;;;;;3.90;1.85;;;;;;;12.24;62.16;101507.53;5078513;28;20055;-61
2022/11/05 00:58:00;;;;;;;3.13;2.00;;;;;;;12.23;62.04;101510.44;5080264;28;20075;-61
2022/11/05 01:00:30;;;;;;;5.68;2.40;;;;;;;12.22;61.91;101508.78;5075983;28;20044;-61
2022/11/05 01:03:00;;;;;;;5.15;2.33;;;;;;;12.21;62.13;101518.72;5081714;28;20154;-61
2022/11/05 01:05:31;;;;;;;4.30;2.13;;;;;;;12.22;61.92;101517.69;5075933;28;20045;-61
2022/11/05 01:07:59;;;;;;;4.53;2.65;;;;;;;12.20;62.21;101514.38;5077029;28;20045;-61
2022/11/05 01:10:27;;;;;;;3.72;2.15;;;;;;;12.16;62.24;101509.66;5064846;28;20045;-61
2022/11/05 01:12:56;;;;;;;3.33;2.00;;;;;;;12.18;61.95;101519.16;5075768;28;20048;-61
2022/11/05 01:15:23;;;;;;;3.72;2.15;;;;;;;12.19;62.26;101520.00;5078794;28;20075;-61
2022/11/05 01:17:52;;;;;;;3.83;1.88;;;;;;;12.16;62.18;101518.56;5076819;28;20053;-61
2022/11/05 01:20:19;;;;;;;4.15;2.50;;;;;;;12.16;62.21;101529.34;5077597;28;20044;-61
2022/11/05 01:22:48;;;;;;;3.45;2.35;;;;;;;12.17;62.14;101535.53;5077171;28;20053;-62
2022/11/05 01:25:16;;;;;;;4.00;2.00;;;;;;;12.14;61.94;101539.50;5079437;28;20049;-61
2022/11/05 01:27:44;;;;;;;7.00;2.05;;;;;;;12.14;62.00;101544.06;5077442;28;20048;-61
2022/11/05 01:30:13;;;;;;;5.13;2.28;;;;;;;12.12;62.09;101544.31;5076742;28;20588;-61
2022/11/05 01:32:41;;;;;;;4.97;2.13;;;;;;;12.08;62.08;101540.38;5077377;28;20067;-62
2022/11/05 01:35:12;;;;;;;5.10;1.90;;;;;;;12.10;61.99;101541.00;5072488;28;20125;-62
2022/11/05 01:37:40;;;;;;;5.85;2.42;;;;;;;12.10;61.89;101549.09;5081743;28;20041;-61
2022/11/05 01:40:12;;;;;;;3.35;1.90;;;;;;;12.10;61.97;101556.34;5081627;28;20417;-61
2022/11/05 01:42:40;;;;;;;4.97;2.17;;;;;;;12.09;61.95;101552.81;5077304;28;20108;-61
2022/11/05 01:45:15;;;;;;;4.90;2.15;;;;;;;12.09;62.10;101550.13;5077175;28;20057;-61
2022/11/05 01:47:57;;;;;;;6.13;2.20;;;;;;;12.08;62.01;101547.66;5080869;28;20095;-61
2022/11/05 01:50:41;;;;;;;4.55;2.30;;;;;;;12.07;62.00;101552.22;5075625;28;20036;-61
2022/11/05 01:53:18;;;;;;;5.65;1.73;;;;;;;12.08;61.90;101551.16;5066673;28;20053;-61
2022/11/05 01:55:51;;;;;;;5.28;1.90;;;;;;;12.05;61.83;101552.44;5079690;28;20045;-61
2022/11/05 01:58:23;;;;;;;4.65;1.95;;;;;;;12.03;61.75;101551.81;5069335;28;20494;-61
2022/11/05 02:00:51;;;;;;;4.25;2.10;;;;;;;12.02;61.96;101557.41;5073737;28;20045;-61
2022/11/05 02:03:19;;;;;;;5.90;2.05;;;;;;;12.02;61.79;101549.34;5066026;28;20049;-61
2022/11/05 02:05:50;;;;;;;4.10;2.05;;;;;;;11.99;61.57;101544.38;5077885;28;20048;-61
2022/11/05 02:08:27;;;;;;;6.13;2.00;;;;;;;11.99;61.46;101541.69;5066293;28;20051;-61
2022/11/05 02:10:56;;;;;;;5.13;2.05;;;;;;;11.98;61.46;101540.03;5063549;28;20049;-61
2022/11/05 02:13:24;;;;;;;5.15;2.30;;;;;;;11.97;61.52;101535.69;5076741;28;20056;-61
2022/11/05 02:16:04;;;;;;;4.38;3.08;;;;;;;11.97;61.36;101538.38;5077531;28;20048;-61
2022/11/05 02:18:44;;;;;;;5.97;2.20;;;;;;;11.95;61.35;101532.38;5066067;28;20053;-61
2022/11/05 02:21:39;;;;;;;5.00;2.28;;;;;;;11.95;61.54;101537.75;5068296;28;20048;-61
2022/11/05 02:24:34;;;;;;;5.85;2.40;;;;;;;11.94;61.25;101542.31;5050047;28;20052;-61
2022/11/05 02:27:20;;;;;;;4.15;2.10;;;;;;;11.93;61.13;101537.97;5074670;28;20127;-61
2022/11/05 02:30:23;;;;;;;2.95;1.90;;;;;;;11.91;61.27;101548.13;5083276;28;20049;-61
2022/11/05 02:33:14;;;;;;;5.53;2.50;;;;;;;11.85;61.07;101535.53;5084496;28;20175;-61
2022/11/05 02:35:58;;;;;;;8.73;2.38;;;;;;;11.88;61.07;101539.66;5065537;28;20045;-61
2022/11/05 02:38:39;;;;;;;5.80;2.65;;;;;;;11.87;60.89;101533.44;5074923;28;20047;-61
2022/11/05 02:41:13;;;;;;;6.38;2.72;;;;;;;11.86;61.06;101529.09;5080496;28;20267;-60
2022/11/05 02:43:52;;;;;;;7.00;2.83;;;;;;;11.84;61.05;101530.34;5084423;28;20108;-61
2022/11/05 02:46:33;;;;;;;6.57;2.88;;;;;;;11.83;61.07;101526.81;5078990;28;20044;-61
2022/11/05 02:49:11;;;;;;;4.85;2.50;;;;;;;11.81;60.89;101530.78;5083498;28;20048;-61
2022/11/05 02:51:47;;;;;;;6.35;2.28;;;;;;;11.81;60.94;101533.47;5075262;28;20139;-61
2022/11/05 02:54:20;;;;;;;5.10;2.63;;;;;;;11.80;61.04;101529.94;5082912;28;20057;-61
2022/11/05 02:56:51;;;;;;;5.90;2.50;;;;;;;11.80;60.90;101534.50;5082387;28;20055;-61
2022/11/05 02:59:19;;;;;;;6.38;2.90;;;;;;;11.79;60.94;101530.16;5084649;28;20040;-60
2022/11/05 03:01:49;;;;;;;6.40;2.55;;;;;;;11.79;60.89;101530.97;5078425;28;20285;-60
2022/11/05 03:04:19;;;;;;;6.10;2.95;;;;;;;11.78;60.71;101533.88;5075647;28;20044;-60
2022/11/05 03:07:10;;;;;;;3.97;2.70;;;;;;;11.77;60.94;101526.81;5077886;28;20115;-60
2022/11/05 03:09:57;;;;;;;4.82;2.95;;;;;;;11.75;60.70;101529.72;5066524;28;20408;-61
2022/11/05 03:12:33;;;;;;;;;;;;;;;11.74;60.82;101531.59;5079050;28;20404;-60
2022/11/05 03:15:10;;;;;;;6.38;2.97;;;;;;;11.74;60.82;101528.91;5083971;28;19935;-60
2022/11/05 03:17:50;;;;;;;7.63;3.03;;;;;;;11.72;60.85;101525.59;5083529;28;20067;-60
2022/11/05 03:20:20;;;;;;;5.72;2.78;;;;;;;11.72;60.65;101528.28;5070028;28;20063;-61
2022/11/05 03:22:53;;;;;;;7.75;3.15;;;;;;;11.71;60.80;101534.72;5078247;28;20385;-61
2022/11/05 03:25:24;;;;;;;6.05;3.45;;;;;;;11.68;60.84;101535.13;5083330;28;20052;-61
2022/11/05 03:27:57;;;;;;;5.35;3.38;;;;;;;11.69;60.61;101534.09;5080896;28;20151;-60
2022/11/05 03:30:25;;;;;;;6.45;3.28;;;;;;;11.66;60.42;101526.44;5075554;28;20068;-61
2022/11/05 03:32:59;;;;;;;6.75;3.25;;;;;;;11.67;60.65;101530.78;5075980;28;20053;-61
2022/11/05 03:35:30;;;;;;;7.03;3.35;;;;;;;11.66;60.62;101531.00;5070924;28;20041;-60
2022/11/05 03:38:02;;;;;;;7.00;3.42;;;;;;;11.65;60.50;101543.63;5077673;28;20052;-60
2022/11/05 03:40:33;;;;;;;4.75;3.00;;;;;;;11.65;60.53;101543.63;5082828;28;20055;-60
2022/11/05 03:43:06;;;;;;;7.43;4.05;;;;;;;11.62;60.61;101541.38;5077793;28;20072;-61
2022/11/05 03:45:40;;;;;;;7.90;3.33;;;;;;;11.62;60.62;101545.91;5082308;28;20048;-61
2022/11/05 03:48:12;;;;;;;5.63;3.30;;;;;;;11.63;60.45;101542.19;5082588;28;20057;-60
2022/11/05 03:50:44;;;;;;;5.38;3.05;;;;;;;11.60;60.13;101538.06;5072598;28;20076;-60
2022/11/05 03:53:16;;;;;;;7.45;3.33;;;;;;;11.60;60.69;101548.00;5077729;28;20048;-60
2022/11/05 03:55:49;;;;;;;7.03;3.38;;;;;;;11.57;60.52;101535.78;5078506;28;20408;-61
2022/11/05 03:58:19;;;;;;;6.15;3.13;;;;;;;11.55;60.28;101543.25;5073409;28;20048;-62
2022/11/05 04:00:48;;;;;;;4.80;3.05;;;;;;;11.54;60.33;101538.91;5067088;28;20501;-61
2022/11/05 04:03:17;;;;;;;7.05;3.70;;;;;;;11.53;60.41;101537.25;5082699;28;20059;-62
2022/11/05 04:13:22;;;;;;;14.43;4.38;;;;;;;11.53;60.27;101548.00;5068024;28;20048;-61
2022/11/05 04:14:03;;;;;;;6.45;3.88;;;;;;;11.51;59.88;101549.25;5082717;28;20211;-60
2022/11/05 04:24:07;;;;;;;4.88;3.50;;;;;;;11.48;60.17;101552.38;5068517;28;20044;-60
2022/11/05 04:24:51;;;;;;;11.18;4.05;;;;;;;11.46;60.24;101560.66;5067066;28;20055;-62
2022/11/05 04:27:19;;;;;;;7.68;3.78;;;;;;;11.44;60.36;101560.03;5076461;28;20049;-61
2022/11/05 04:32:32;;;;;;;7.93;3.72;;;;;;;11.43;60.22;101566.47;5075379;28;20048;-61
2022/11/05 04:35:01;;;;;;;10.52;4.20;;;;;;;11.43;60.11;101563.78;5076575;28;20462;-61
2022/11/05 04:37:29;;;;;;;4.93;3.13;;;;;;;11.43;59.67;101560.25;5063879;28;20458;-61
2022/11/05 04:39:57;;;;;;;7.93;3.80;;;;;;;11.41;59.86;101552.38;5078519;28;20059;-60
2022/11/05 04:42:24;;;;;;;7.90;3.97;;;;;;;11.38;60.14;101553.63;5066368;28;20052;-62
2022/11/05 04:44:52;;;;;;;7.22;3.97;;;;;;;11.38;60.09;101555.50;5074378;28;20040;-61
2022/11/05 04:47:20;;;;;;;9.20;4.00;;;;;;;11.38;60.01;101568.97;5069767;28;20048;-61
2022/11/05 04:49:48;;;;;;;8.55;4.18;;;;;;;11.36;59.98;101566.47;5081784;28;20409;-60
2022/11/05 04:52:17;;;;;;;7.13;4.03;;;;;;;11.38;60.01;101571.66;5081419;28;20110;-61
2022/11/05 04:54:44;;;;;;;7.47;3.60;;;;;;;11.38;59.94;101585.09;5081591;28;20044;-60
2022/11/05 04:57:12;;;;;;;6.82;3.80;;;;;;;11.34;59.85;101571.25;5077484;28;20516;-60
2022/11/05 04:59:40;;;;;;;6.70;3.97;;;;;;;11.35;59.81;101578.28;5079708;28;20049;-60
2022/11/05 05:02:08;;;;;;;8.07;4.13;;;;;;;11.35;59.95;101582.84;5078424;28;20051;-60
2022/11/05 05:04:35;;;;;;;12.13;4.85;;;;;;;11.33;60.11;101588.41;5080507;28;20078;-60
2022/11/05 05:07:03;;;;;;;7.35;3.90;;;;;;;11.34;60.05;101578.47;5082670;28;20054;-60
2022/11/05 05:09:32;;;;;;;6.85;3.58;;;;;;;11.34;59.87;101582.00;5078210;28;20051;-60
2022/11/05 05:12:01;;;;;;;7.35;3.42;;;;;;;11.33;59.82;101584.91;5071414;28;20070;-60
2022/11/05 05:14:29;;;;;;;9.30;3.90;;;;;;;11.31;59.89;101582.41;5070559;28;20061;-60
2022/11/05 05:16:56;;;;;;;5.88;3.75;;;;;;;11.32;60.09;101589.47;5077524;28;20550;-60
2022/11/05 05:19:24;;;;;;;6.55;3.67;;;;;;;11.32;59.71;101586.78;5080116;28;20076;-60
2022/11/05 05:21:51;;;;;;;9.20;4.07;;;;;;;11.30;59.85;101590.69;5077952;28;20064;-60
2022/11/05 05:24:20;;;;;;;6.93;4.13;;;;;;;11.27;60.09;101591.13;5075870;28;20052;-61
2022/11/05 05:26:50;;;;;;;8.05;3.65;;;;;;;11.27;59.93;101594.63;5080400;28;20063;-60
2022/11/05 05:29:18;;;;;;;6.43;3.70;;;;;;;11.27;59.94;101593.81;5081236;28;20041;-61
2022/11/05 05:31:46;;;;;;;7.03;4.25;;;;;;;11.26;59.88;101597.53;5078875;28;20051;-61
2022/11/05 05:34:14;;;;;;;9.48;3.78;;;;;;;11.24;59.86;101594.22;5077368;28;20048;-61
2022/11/05 05:36:42;;;;;;;6.20;3.70;;;;;;;11.23;59.95;101592.56;5078024;28;20044;-62
2022/11/05 05:39:10;;;;;;;6.35;3.60;;;;;;;11.24;59.91;101591.53;5082810;28;20123;-61
2022/11/05 05:41:38;;;;;;;6.43;3.30;;;;;;;11.22;59.93;101593.59;5076605;28;20067;-62
2022/11/05 05:44:07;;;;;;;9.02;3.80;;;;;;;11.21;59.80;101600.03;5075872;28;20115;-62
2022/11/05 05:46:35;;;;;;;7.82;3.58;;;;;;;11.19;60.00;101611.00;5074730;28;20044;-63
2022/11/05 05:49:03;;;;;;;6.03;3.40;;;;;;;11.17;59.81;101609.53;5076788;28;20076;-63
2022/11/05 05:51:39;;;;;;;9.15;3.70;;;;;;;11.17;59.96;101599.59;5075658;28;20053;-66
2022/11/05 05:54:06;;;;;;;6.60;4.00;;;;;;;11.16;59.88;101602.50;5076839;28;20048;-66
2022/11/05 05:56:37;;;;;;;8.65;3.78;;;;;;;11.15;59.80;101604.38;5077920;28;20064;-63
2022/11/05 05:59:06;;;;;;;7.63;3.85;;;;;;;11.12;60.09;101607.47;4721091;28;10000696;-62
2022/11/05 06:01:34;;;;;;;7.90;4.30;;;;;;;11.06;59.93;101601.06;5082290;28;20052;-62
2022/11/05 06:04:02;;;;;;;8.98;3.78;;;;;;;11.13;60.00;101611.00;5081550;28;20426;-63
2022/11/05 06:06:33;;;;;;;8.23;4.07;;;;;;;11.13;59.77;101608.31;5081102;28;20055;-63
2022/11/05 06:09:01;;;;;;;6.80;3.60;;;;;;;11.10;59.81;101606.84;5080826;28;20127;-60
2022/11/05 06:11:29;;;;;;;6.55;3.97;;;;;;;11.10;59.85;101614.91;5078663;28;20385;-61
2022/11/05 06:13:57;;;;;;;7.07;4.28;;;;;;;11.07;59.95;101605.41;5082317;28;20045;-61
2022/11/05 06:16:27;;;;;;;8.60;3.70;;;;;;;11.09;59.82;101613.25;5079552;28;20116;-61
2022/11/05 06:18:55;;;;;;;7.38;3.60;;;;;;;11.08;59.81;101614.31;5081793;28;20067;-61
2022/11/05 06:21:22;;;;;;;11.20;3.83;;;;;;;11.06;59.92;101619.88;5081301;28;20056;-61
2022/11/05 06:23:50;;;;;;;8.15;4.10;;;;;;;11.05;59.87;101615.53;5081910;28;20052;-61
2022/11/05 06:26:18;;;;;;;8.73;3.78;;;;;;;11.03;59.87;101614.09;5080377;28;20062;-61
2022/11/05 06:28:46;;;;;;;5.53;3.22;;;;;;;11.02;59.45;101623.19;5079093;28;20135;-61
2022/11/05 06:31:15;;;;;;;5.90;3.42;;;;;;;11.03;60.02;101616.78;5077230;28;20072;-61
2022/11/05 06:33:44;;;;;;;9.02;4.20;;;;;;;11.02;59.49;101631.25;5078636;28;20052;-61
2022/11/05 06:36:14;;;;;;;7.75;4.32;;;;;;;11.02;59.76;101629.41;5079254;28;20051;-61
2022/11/05 06:38:42;;;;;;;6.55;3.55;;;;;;;11.00;59.68;101618.00;5072707;28;20147;-62
2022/11/05 06:41:10;;;;;;;7.47;4.28;;;;;;;10.98;59.71;101628.16;5080746;28;20061;-61
2022/11/05 06:43:38;;;;;;;8.15;3.65;;;;;;;10.98;59.57;101630.00;5079925;28;20048;-61
2022/11/05 06:46:06;;;;;;;9.27;3.75;;;;;;;10.97;59.84;101634.56;5080116;28;20077;-61
2022/11/05 06:48:34;;;;;;;9.15;3.83;;;;;;;10.98;59.36;101633.53;5081745;28;20064;-61
2022/11/05 06:51:04;;;;;;;7.63;3.78;;;;;;;10.95;59.81;101628.56;5081759;28;20151;-61
2022/11/05 06:53:33;;;;;;;6.53;3.53;;;;;;;10.94;59.80;101634.97;5079278;28;20048;-61
2022/11/05 06:56:04;;;;;;;7.95;3.35;;;;;;;10.96;59.87;101632.09;5081863;28;20545;-61
2022/11/05 06:58:32;;;;;;;6.85;3.45;;;;;;;10.95;59.75;101635.81;5079748;28;20048;-61
2022/11/05 07:01:01;;;;;;;9.57;3.33;;;;;;;10.96;59.76;101634.78;5075596;28;20644;-62
2022/11/05 07:03:29;;;;;;;8.73;3.85;;;;;;;10.96;59.67;101637.47;5066887;28;20049;-61
2022/11/05 07:05:59;;;;;;;9.60;3.38;;;;;;;10.94;59.67;101639.53;5073160;28;20309;-61
2022/11/05 07:08:31;;;;;;;6.68;3.47;;;;;;;10.93;59.81;101643.25;5070519;28;20472;-61
2022/11/05 07:10:59;;;;;;;8.43;3.80;;;;;;;10.93;59.86;101638.69;5081385;28;20052;-61
2022/11/05 07:13:26;;;;;;;7.60;3.72;;;;;;;10.90;59.87;101647.19;5076284;28;20067;-61
2022/11/05 07:15:54;;;;;;;5.40;3.40;;;;;;;10.90;59.83;101649.03;5071214;28;20115;-61
2022/11/05 07:18:22;;;;;;;13.10;4.68;;;;;;;10.86;59.72;101639.72;5073376;28;20048;-62
2022/11/05 07:20:50;;;;;;;7.05;3.55;;;;;;;10.88;59.94;101654.63;5079526;28;20209;-62
2022/11/05 07:23:18;;;;;;;7.95;3.70;;;;;;;10.86;59.93;101659.38;5080156;28;20053;-62
2022/11/05 07:25:47;;;;;;;7.45;3.63;;;;;;;10.84;59.89;101658.75;5080626;28;20472;-61
2022/11/05 07:28:15;;;;;;;5.93;3.67;;;;;;;10.85;60.01;101656.88;5074175;28;20067;-61
2022/11/05 07:30:42;;;;;;;7.38;3.92;;;;;;;10.85;60.07;101664.97;5079000;28;20055;-60
2022/11/05 07:33:10;;;;;;;8.70;3.55;;;;;;;10.85;59.90;101663.09;5078629;28;20264;-61
2022/11/05 07:35:38;;;;;;;8.55;4.07;;;;;;;10.85;59.90;101660.41;5075061;28;20048;-60
2022/11/05 07:38:06;;;;;;;7.25;3.65;;;;;;;10.83;60.01;101665.16;5068964;28;20055;-61
2022/11/05 07:40:34;;;;;;;7.70;3.08;;;;;;;10.83;60.02;101673.22;5066174;28;20051;-61
2022/11/05 07:43:03;;;;;;;7.00;3.58;;;;;;;10.83;59.97;101672.41;5075636;28;20037;-61
2022/11/05 07:45:31;;;;;;;7.80;3.50;;;;;;;10.83;60.19;101680.47;5063286;28;20059;-60
2022/11/05 07:48:01;;;;;;;7.22;3.40;;;;;;;10.79;60.32;101677.34;5066574;28;20048;-60
2022/11/05 07:50:31;;;;;;;6.90;3.10;;;;;;;10.82;60.03;101690.38;5074938;28;20046;-60
2022/11/05 07:53:04;;;;;;;6.07;3.58;;;;;;;10.81;60.16;101685.22;5078607;28;20052;-60
2022/11/05 07:55:32;;;;;;;8.48;3.15;;;;;;;10.84;60.03;101685.63;5077596;28;20049;-62
2022/11/05 07:58:00;;;;;;;9.13;3.80;;;;;;;10.75;60.42;101684.16;5068501;28;20116;-61
2022/11/05 08:00:30;;;;;;;7.68;3.60;;;;;;;10.75;60.61;101679.63;5078937;28;20048;-61
2022/11/05 08:03:00;;;;;;;8.88;3.45;;;;;;;10.79;60.29;101681.91;5074180;28;20054;-60
2022/11/05 08:05:36;;;;;;;9.32;4.00;;;;;;;10.79;60.38;101687.28;5070872;28;20055;-59
2022/11/05 08:08:05;;;;;;;10.55;3.97;;;;;;;10.88;60.32;101678.81;5073919;28;20076;-60
2022/11/05 08:10:34;;;;;;;8.00;3.75;;;;;;;11.00;60.17;101687.94;5072944;28;20041;-60
2022/11/05 08:13:02;;;;;;;6.18;3.25;;;;;;;11.15;59.58;101685.09;5076095;28;20068;-60
2022/11/05 08:15:31;;;;;;;8.82;3.33;;;;;;;11.33;59.02;101681.78;5078530;28;20067;-60
2022/11/05 08:17:59;;;;;;;5.05;3.03;;;;;;;11.50;58.59;101679.50;5076803;28;20052;-60
2022/11/05 08:20:27;;;;;;;7.95;4.57;;;;;;;11.59;58.00;101670.19;5079983;28;20501;-60
2022/11/05 08:22:55;;;;;;;6.15;3.13;;;;;;;11.58;58.28;101679.31;5083507;28;20048;-60
2022/11/05 08:25:24;;;;;;;8.90;3.50;;;;;;;11.53;58.29;101679.09;5083025;28;20331;-59
2022/11/05 08:27:55;;;;;;;7.00;3.25;;;;;;;11.48;58.66;101677.03;5079688;28;20048;-61
2022/11/05 08:30:23;;;;;;;10.48;3.85;;;;;;;11.40;59.10;101674.53;5076984;28;20049;-58
2022/11/05 08:32:56;;;;;;;6.10;3.28;;;;;;;11.37;59.15;101672.25;5081797;28;20052;-61
2022/11/05 08:35:24;;;;;;;8.30;3.45;;;;;;;11.32;59.39;101669.38;5083125;28;20051;-61
2022/11/05 08:37:56;;;;;;;6.55;3.05;;;;;;;11.28;59.44;101682.41;5083321;28;20044;-61
2022/11/05 08:40:24;;;;;;;8.75;3.40;;;;;;;11.24;59.58;101683.03;5083344;28;20056;-62
2022/11/05 08:42:52;;;;;;;5.97;3.63;;;;;;;11.22;60.06;101685.09;5080665;28;20051;-59
2022/11/05 08:45:20;;;;;;;5.78;2.67;;;;;;;11.20;59.93;101681.78;5081480;28;20382;-59
2022/11/05 08:47:48;;;;;;;7.30;2.92;;;;;;;11.18;59.95;101683.84;5082588;28;20054;-59
2022/11/05 08:50:17;;;;;;;7.18;3.35;;;;;;;11.17;60.08;101679.50;5073297;28;20251;-60
2022/11/05 08:52:45;;;;;;;7.15;2.90;;;;;;;11.17;60.16;101683.00;5063655;28;20049;-60
2022/11/05 08:55:17;;;;;;;9.95;3.20;;;;;;;11.14;60.43;101685.28;5078606;28;20071;-60
2022/11/05 08:57:45;;;;;;;6.47;2.70;;;;;;;11.15;60.43;101684.25;5069261;28;20053;-60
2022/11/05 09:00:14;;;;;;;9.02;2.85;;;;;;;11.14;60.44;101683.41;5082080;28;20040;-59
2022/11/05 09:02:42;;;;;;;6.43;2.90;;;;;;;11.14;60.43;101683.41;5082393;28;20117;-61
2022/11/05 09:05:10;;;;;;;6.40;3.42;;;;;;;11.14;60.58;101687.97;5082493;28;20071;-61
2022/11/05 09:07:39;;;;;;;7.07;3.55;;;;;;;11.14;60.80;101688.81;5071387;28;20055;-60
2022/11/05 09:10:07;;;;;;;5.85;3.25;;;;;;;11.15;60.80;101693.16;5081734;28;20503;-59
2022/11/05 09:12:35;;;;;;;5.10;2.78;;;;;;;11.14;60.81;101688.81;5074495;28;20052;-60
2022/11/05 09:15:03;;;;;;;8.63;3.63;;;;;;;11.16;60.79;101685.91;5064904;28;20048;-60
2022/11/05 09:17:30;;;;;;;6.07;3.13;;;;;;;11.16;60.89;101696.66;5073893;28;20052;-59
2022/11/05 09:19:58;;;;;;;8.48;3.10;;;;;;;11.17;60.86;101688.41;5074171;28;20083;-63
2022/11/05 09:22:26;;;;;;;8.30;3.22;;;;;;;11.15;61.06;101693.16;5078953;28;20053;-60
2022/11/05 09:24:55;;;;;;;8.00;3.08;;;;;;;11.12;61.25;101696.25;5082910;28;20051;-60
2022/11/05 09:27:22;;;;;;;6.85;3.50;;;;;;;11.13;61.46;101697.06;5079928;28;20357;-60
2022/11/05 09:29:50;;;;;;;8.00;3.90;;;;;;;11.14;61.41;101685.28;5082295;28;20044;-60
2022/11/05 09:32:19;;;;;;;6.43;3.60;;;;;;;11.12;61.67;101695.41;5081400;28;20044;-60
2022/11/05 09:34:47;;;;;;;5.97;3.05;;;;;;;11.12;61.62;101690.88;5082057;28;20044;-60
2022/11/05 09:37:15;;;;;;;6.10;2.60;;;;;;;11.13;61.75;101691.69;5066588;28;20121;-60
2022/11/05 09:39:43;;;;;;;8.57;3.53;;;;;;;11.11;62.02;101691.06;5071694;28;20044;-60
2022/11/05 09:42:17;;;;;;;9.38;3.33;;;;;;;11.13;61.90;101697.06;5081318;28;20501;-60
2022/11/05 09:44:49;;;;;;;6.57;3.38;;;;;;;11.13;61.96;101700.59;5081529;28;20048;-60
2022/11/05 09:47:23;;;;;;;7.93;3.20;;;;;;;11.14;62.01;101702.25;5082101;28;20127;-60
2022/11/05 09:49:53;;;;;;;5.72;3.00;;;;;;;11.08;62.81;101703.91;5080590;28;20044;-60
2022/11/05 09:52:22;;;;;;;5.85;3.10;;;;;;;11.12;62.35;101712.38;5078611;28;20036;-60
2022/11/05 09:54:50;;;;;;;6.85;2.85;;;;;;;11.13;62.46;101708.66;5080584;28;20052;-60
2022/11/05 09:57:24;;;;;;;9.30;3.25;;;;;;;11.14;62.93;101718.41;5080951;28;20068;-61
2022/11/05 09:59:54;;;;;;;6.88;3.72;;;;;;;11.10;63.33;101719.84;5080649;28;20098;-59
2022/11/05 10:02:25;;;;;;;7.55;3.30;;;;;;;11.12;63.17;101717.78;5079920;28;20044;-61
2022/11/05 10:04:57;;;;;;;8.18;4.10;;;;;;;11.14;62.97;101714.88;5077571;28;20175;-62
2022/11/05 10:07:29;;;;;;;9.25;3.70;;;;;;;11.15;63.24;101719.22;5081133;28;20070;-62
2022/11/05 10:10:00;;;;;;;8.00;3.45;;;;;;;11.17;63.32;101718.00;5080703;28;20044;-63
2022/11/05 10:12:34;;;;;;;7.93;2.88;;;;;;;11.20;63.05;101716.75;5081957;28;20045;-63
2022/11/05 10:15:11;;;;;;;11.15;3.33;;;;;;;11.24;63.55;101726.06;5080181;28;20314;-63
2022/11/05 10:17:43;;;;;;;9.23;3.85;;;;;;;11.25;63.66;101733.13;5074613;28;20044;-63
2022/11/05 10:20:29;;;;;;;8.45;3.97;;;;;;;11.27;63.82;101731.03;5081249;28;20044;-63
2022/11/05 10:23:01;;;;;;;7.32;3.35;;;;;;;11.27;63.94;101737.25;5080705;28;20305;-64
2022/11/05 10:25:33;;;;;;;11.23;3.45;;;;;;;11.30;64.09;101747.59;5080446;28;20438;-63
2022/11/05 10:28:04;;;;;;;7.03;4.25;;;;;;;11.31;64.18;101746.56;5074776;28;20055;-62
2022/11/05 10:30:32;;;;;;;6.70;3.15;;;;;;;11.32;64.29;101737.47;5073123;28;20044;-63
2022/11/05 10:33:05;;;;;;;8.25;3.20;;;;;;;11.31;64.10;101732.28;5078089;28;20057;-63
2022/11/05 10:35:36;;;;;;;7.95;3.17;;;;;;;11.33;64.50;101741.81;5076276;28;20473;-64
2022/11/05 10:38:04;;;;;;;9.02;3.20;;;;;;;11.33;64.47;101747.19;5082557;28;20049;-64
2022/11/05 10:40:43;;;;;;;6.57;3.17;;;;;;;11.35;64.51;101739.75;5083545;28;20055;-67
2022/11/05 10:43:16;;;;;;;6.07;3.15;;;;;;;11.36;64.37;101743.28;5082528;28;20048;-63
2022/11/05 10:45:52;;;;;;;5.45;3.00;;;;;;;11.40;64.77;101749.91;5077150;28;20141;-64
2022/11/05 10:48:48;;;;;;;10.40;3.60;;;;;;;11.39;64.65;101735.63;5076162;28;20045;-61
2022/11/05 10:51:17;;;;;;;6.72;3.22;;;;;;;11.40;64.70;101745.34;5081531;28;20112;-62
2022/11/05 10:53:52;;;;;;;10.68;3.40;;;;;;;11.43;64.42;101735.19;5079311;28;20072;-61
2022/11/05 10:56:30;;;;;;;7.15;3.20;;;;;;;11.44;64.65;101737.69;5083617;28;20389;-61
2022/11/05 10:59:00;;;;;;;8.38;3.60;;;;;;;11.45;64.55;101735.81;5084733;28;20048;-62
2022/11/05 11:01:29;;;;;;;11.07;3.50;;;;;;;11.46;64.74;101734.78;5080771;28;20067;-62
2022/11/05 11:04:17;;;;;;;8.50;4.45;;;;;;;11.45;64.82;101728.59;5077278;28;20113;-63
2022/11/05 11:06:50;;;;;;;8.80;3.30;;;;;;;11.47;64.79;101734.59;5078923;28;20060;-62
2022/11/05 11:09:22;;;;;;;9.63;3.58;;;;;;;11.47;64.92;101736.44;5081807;28;20052;-63
2022/11/05 11:11:58;;;;;;;7.32;3.22;;;;;;;11.47;64.76;101734.59;5079217;28;20448;-62
2022/11/05 11:14:28;;;;;;;10.48;4.18;;;;;;;11.48;64.92;101730.03;5082426;28;20048;-63
2022/11/05 11:17:16;;;;;;;9.56;4.32;;;;;;;11.48;65.11;101725.47;4731152;28;10000723;-64
2022/11/05 11:19:44;;;;;;;5.82;3.15;;;;;;;11.50;65.00;101730.66;5079822;28;20064;-63
2022/11/05 11:22:19;;;;;;;9.00;3.28;;;;;;;11.51;64.95;101726.94;5072572;28;20048;-62
2022/11/05 11:24:50;;;;;;;7.13;3.17;;;;;;;11.52;64.96;101724.03;5074990;28;20051;-62
2022/11/05 11:27:22;;;;;;;6.93;3.10;;;;;;;11.55;65.06;101729.00;5075242;28;20646;-61
2022/11/05 11:29:57;;;;;;;10.63;4.13;;;;;;;11.58;65.09;101722.38;5069351;28;20044;-61
2022/11/05 11:32:31;;;;;;;8.07;3.63;;;;;;;11.63;65.00;101714.50;5076887;28;20044;-60
2022/11/05 11:35:00;;;;;;;7.53;3.67;;;;;;;11.66;65.09;101712.22;5077242;28;20047;-62
2022/11/05 11:37:30;;;;;;;6.57;3.22;;;;;;;11.67;64.93;101713.06;5065269;28;20053;-61
2022/11/05 11:40:02;;;;;;;9.50;3.63;;;;;;;11.69;64.88;101710.97;5077972;28;20052;-62
2022/11/05 11:42:33;;;;;;;6.70;3.85;;;;;;;11.69;64.86;101716.38;5079888;28;20055;-61
2022/11/05 11:45:07;;;;;;;7.53;3.45;;;;;;;11.68;65.00;101709.31;5079258;28;20053;-61
2022/11/05 11:47:34;;;;;;;10.93;3.63;;;;;;;11.72;64.89;101707.88;5077802;28;20044;-61
2022/11/05 11:50:02;;;;;;;9.88;3.65;;;;;;;11.74;64.82;101713.88;5080943;28;20056;-61
2022/11/05 11:52:32;;;;;;;5.80;3.35;;;;;;;11.76;64.48;101705.59;5079684;28;20067;-61
2022/11/05 11:55:19;;;;;;;6.45;3.42;;;;;;;11.79;64.88;101711.41;5080308;28;20059;-61
2022/11/05 11:57:50;;;;;;;5.07;2.78;;;;;;;11.83;64.64;101714.53;5080588;28;20052;-61
2022/11/05 12:00:24;;;;;;;9.05;3.20;;;;;;;11.84;64.54;101708.09;5080835;28;20055;-61
2022/11/05 12:03:05;;;;;;;9.15;3.60;;;;;;;11.84;64.62;101703.53;5066592;28;20049;-60
2022/11/05 12:05:40;;;;;;;7.30;3.17;;;;;;;11.85;64.83;101707.06;5080313;28;20048;-61
2022/11/05 12:08:32;;;;;;;7.55;3.55;;;;;;;11.87;64.83;101697.75;5067911;28;20065;-61
2022/11/05 12:11:05;;;;;;;11.23;3.00;;;;;;;11.90;64.48;101694.63;5061006;28;20045;-61
2022/11/05 12:14:13;;;;;;;8.60;3.65;;;;;;;11.91;65.06;101698.97;5078636;28;20044;-60
2022/11/05 12:16:58;;;;;;;8.00;3.28;;;;;;;11.93;64.70;101698.78;5078780;28;20048;-61
2022/11/05 12:19:38;;;;;;;7.97;3.50;;;;;;;11.95;64.84;101697.53;5078847;28;20119;-60
2022/11/05 12:22:14;;;;;;;7.82;2.95;;;;;;;11.96;64.83;101701.88;5076360;28;20055;-60
2022/11/05 12:25:13;;;;;;;6.38;3.00;;;;;;;11.98;64.97;101698.97;5072423;28;20053;-59
2022/11/05 12:27:54;;;;;;;7.65;3.08;;;;;;;11.97;64.67;101700.00;5080209;28;20119;-60
2022/11/05 12:30:23;;;;;;;7.43;2.83;;;;;;;12.01;64.94;101695.84;5080053;28;20183;-60